Time;durP1;ratioP1;P1;durP2;ratioP2;P2;SDS_P1;SDS_P2;PMS_P1;PMS_P2;Temp;Humidity;BMP_temperature;BMP_pressure;BME280_temperature;BME280_humidity;BME280_pressure;Samples;Min_cycle;Max_cycle;Signal;HPM_P1;HPM_P2
2024/02/21 05:08:05;;;;;;;0.40;0.40;;;7.00;99.90;;;;;;4937928;29;20228;-66
2024/02/21 05:10:31;;;;;;;0.30;0.30;;;6.90;99.90;;;;;;4939569;29;20173;-67
2024/02/21 05:12:57;;;;;;;0.30;0.30;;;6.80;99.90;;;;;;4939429;29;20597;-65
2024/02/21 05:15:23;;;;;;;0.30;0.30;;;6.70;99.90;;;;;;4919302;29;20181;-66
2024/02/21 05:17:49;;;;;;;0.40;0.40;;;6.60;99.90;;;;;;4920381;29;20604;-66
2024/02/21 05:20:15;;;;;;;0.30;0.30;;;6.60;99.90;;;;;;4921018;29;20413;-67
2024/02/21 05:22:40;;;;;;;0.40;0.40;;;6.50;99.90;;;;;;4920330;29;20547;-67
2024/02/21 05:25:06;;;;;;;0.30;0.30;;;6.50;99.90;;;;;;4919819;29;20174;-66
2024/02/21 05:27:32;;;;;;;0.30;0.30;;;6.40;99.90;;;;;;4920380;29;20181;-67
2024/02/21 05:29:58;;;;;;;0.40;0.40;;;6.40;99.90;;;;;;4920311;29;20169;-67
2024/02/21 05:32:25;;;;;;;0.30;0.30;;;6.30;99.90;;;;;;4919921;29;20181;-67
2024/02/21 05:34:51;;;;;;;0.30;0.30;;;6.30;99.90;;;;;;4919389;29;20414;-67
2024/02/21 05:37:16;;;;;;;0.40;0.40;;;6.40;99.90;;;;;;4919333;29;20204;-65
2024/02/21 05:39:42;;;;;;;0.30;0.30;;;6.40;99.90;;;;;;4919789;29;20174;-67
2024/02/21 05:42:07;;;;;;;0.30;0.30;;;6.40;99.90;;;;;;4919887;29;20255;-67
2024/02/21 05:44:33;;;;;;;0.40;0.40;;;6.40;99.90;;;;;;4919823;29;20240;-67
2024/02/21 05:46:59;;;;;;;0.40;0.40;;;6.40;99.90;;;;;;4919709;29;20619;-66
2024/02/21 05:49:24;;;;;;;0.40;0.40;;;6.40;99.90;;;;;;4919707;29;20170;-65
2024/02/21 05:51:50;;;;;;;1.20;1.20;;;6.40;99.90;;;;;;4919691;29;20633;-66
2024/02/21 05:54:15;;;;;;;0.40;0.40;;;6.40;99.90;;;;;;4919623;29;20292;-66
2024/02/21 05:56:47;;;;;;;0.40;0.40;;;6.30;99.90;;;;;;4919482;29;20197;-65
2024/02/21 05:59:13;;;;;;;0.30;0.30;;;6.30;99.90;;;;;;4919679;29;20267;-66
2024/02/21 06:01:39;;;;;;;0.50;0.50;;;6.30;99.90;;;;;;4919362;29;20222;-66
2024/02/21 06:04:04;;;;;;;0.30;0.30;;;6.30;99.90;;;;;;4919372;29;20425;-65
2024/02/21 06:06:30;;;;;;;0.30;0.30;;;6.40;99.90;;;;;;4914493;29;20479;-69
2024/02/21 06:08:56;;;;;;;0.30;0.30;;;6.40;99.90;;;;;;4917537;29;20182;-67
2024/02/21 06:11:21;;;;;;;0.30;0.30;;;6.30;99.90;;;;;;4909762;29;20461;-71
2024/02/21 06:13:47;;;;;;;0.40;0.40;;;6.40;99.90;;;;;;4900417;29;20178;-70
2024/02/21 06:16:12;;;;;;;0.30;0.30;;;6.30;99.90;;;;;;4916955;29;20206;-69
2024/02/21 06:18:40;;;;;;;0.50;0.50;;;6.30;99.90;;;;;;4918689;29;20184;-69
2024/02/21 06:21:06;;;;;;;0.38;0.38;;;6.30;99.90;;;;;;4907658;29;20185;-71
2024/02/21 06:23:31;;;;;;;0.30;0.30;;;6.30;99.90;;;;;;4919164;29;20233;-71
2024/02/21 06:25:57;;;;;;;0.40;0.40;;;6.30;99.90;;;;;;4908367;29;20210;-67
2024/02/21 06:28:23;;;;;;;0.40;0.40;;;6.30;99.90;;;;;;4899850;29;20416;-69
2024/02/21 06:30:48;;;;;;;0.30;0.30;;;6.30;99.90;;;;;;4900140;29;20260;-70
2024/02/21 06:33:14;;;;;;;0.40;0.40;;;6.30;99.90;;;;;;4900024;29;20227;-66
2024/02/21 06:35:42;;;;;;;0.30;0.30;;;6.30;99.90;;;;;;4899669;29;20194;-65
2024/02/21 06:38:07;;;;;;;0.30;0.30;;;6.30;99.90;;;;;;4909996;29;20216;-65
2024/02/21 06:40:38;;;;;;;0.30;0.30;;;6.30;99.90;;;;;;4918579;29;20228;-68
2024/02/21 06:43:04;;;;;;;0.30;0.30;;;6.40;99.90;;;;;;4897363;29;20668;-67
2024/02/21 06:45:30;;;;;;;0.30;0.30;;;6.50;99.90;;;;;;4899300;29;20211;-66
2024/02/21 06:47:57;;;;;;;0.30;0.30;;;6.60;99.90;;;;;;4902212;29;20740;-67
2024/02/21 06:50:22;;;;;;;0.30;0.30;;;6.80;99.90;;;;;;4922196;29;20260;-67
2024/02/21 06:52:48;;;;;;;0.30;0.30;;;7.00;99.90;;;;;;4916561;29;20237;-67
2024/02/21 06:55:13;;;;;;;0.30;0.30;;;7.10;99.90;;;;;;4915513;29;20260;-67
2024/02/21 06:57:39;;;;;;;0.30;0.30;;;7.20;99.90;;;;;;4899576;29;20175;-65
2024/02/21 07:00:07;;;;;;;0.30;0.30;;;7.30;99.90;;;;;;4903496;29;20183;-66
2024/02/21 07:02:33;;;;;;;0.30;0.30;;;7.40;99.90;;;;;;4899195;29;20721;-65
2024/02/21 07:04:59;;;;;;;0.30;0.30;;;7.60;99.90;;;;;;4882008;29;20274;-65
2024/02/21 07:07:25;;;;;;;0.30;0.30;;;7.80;99.90;;;;;;4899012;29;20497;-65
2024/02/21 07:09:51;;;;;;;0.43;0.43;;;8.00;99.90;;;;;;4898970;29;20239;-65
2024/02/21 07:12:17;;;;;;;0.30;0.30;;;8.20;99.90;;;;;;4908664;29;20178;-64
2024/02/21 07:14:44;;;;;;;0.30;0.30;;;8.30;99.90;;;;;;4917221;29;20269;-65
2024/02/21 07:17:10;;;;;;;0.40;0.40;;;8.40;99.90;;;;;;4917836;29;20430;-65
2024/02/21 07:19:35;;;;;;;0.30;0.30;;;8.60;99.90;;;;;;4906784;29;20186;-65
2024/02/21 07:22:01;;;;;;;0.30;0.30;;;8.70;99.90;;;;;;4899223;29;20260;-64
2024/02/21 07:24:27;;;;;;;0.30;0.30;;;8.80;99.90;;;;;;4898988;29;20234;-65
2024/02/21 07:26:53;;;;;;;0.37;0.37;;;9.00;99.90;;;;;;4899164;29;20750;-64
2024/02/21 07:29:18;;;;;;;0.30;0.30;;;9.00;99.90;;;;;;4899111;29;20185;-64
2024/02/21 07:31:44;;;;;;;0.40;0.40;;;9.10;99.90;;;;;;4899178;29;20183;-64
2024/02/21 07:34:10;;;;;;;0.40;0.40;;;9.20;99.90;;;;;;4899100;29;20722;-64
2024/02/21 07:36:39;;;;;;;0.30;0.30;;;9.50;99.90;;;;;;4898598;29;20440;-64
2024/02/21 07:39:05;;;;;;;0.30;0.23;;;9.90;99.90;;;;;;4898868;29;20424;-64
2024/02/21 07:41:31;;;;;;;0.30;0.30;;;10.20;99.90;;;;;;4898959;29;20479;-64
2024/02/21 07:43:57;;;;;;;0.30;0.30;;;10.40;99.90;;;;;;4898814;29;20186;-64
2024/02/21 07:46:23;;;;;;;0.30;0.30;;;10.60;99.90;;;;;;4898399;29;20484;-64
2024/02/21 07:48:48;;;;;;;0.40;0.40;;;10.90;99.90;;;;;;4906681;29;20553;-65
2024/02/21 07:51:16;;;;;;;0.30;0.30;;;11.10;99.90;;;;;;4917638;29;20184;-65
2024/02/21 07:53:44;;;;;;;0.30;0.30;;;11.30;99.90;;;;;;4917719;29;20257;-63
2024/02/21 07:56:11;;;;;;;0.30;0.30;;;11.40;99.90;;;;;;4916911;29;20837;-65
2024/02/21 07:58:36;;;;;;;0.30;0.30;;;11.50;99.90;;;;;;4917315;29;20913;-65
2024/02/21 08:01:02;;;;;;;0.30;0.20;;;11.60;99.90;;;;;;4917587;29;20504;-65
2024/02/21 08:03:28;;;;;;;0.30;0.30;;;11.70;99.90;;;;;;4916948;29;20596;-65
2024/02/21 08:05:53;;;;;;;0.30;0.30;;;11.80;99.90;;;;;;4916855;29;20218;-65
2024/02/21 08:08:21;;;;;;;0.30;0.20;;;11.90;99.90;;;;;;4916867;29;20270;-66
2024/02/21 08:10:47;;;;;;;0.30;0.30;;;12.20;99.60;;;;;;4917114;29;20841;-65
2024/02/21 08:13:12;;;;;;;0.30;0.30;;;12.40;99.40;;;;;;4916691;29;20420;-64
2024/02/21 08:15:39;;;;;;;0.30;0.30;;;12.50;98.80;;;;;;4916539;29;20187;-64
2024/02/21 08:18:05;;;;;;;0.30;0.30;;;12.70;98.50;;;;;;4916672;29;20188;-66
2024/02/21 08:20:31;;;;;;;0.30;0.30;;;13.10;98.20;;;;;;4917136;29;20417;-65
2024/02/21 08:22:56;;;;;;;0.30;0.30;;;13.50;97.50;;;;;;4917110;29;20906;-64
2024/02/21 08:25:22;;;;;;;0.30;0.30;;;13.90;96.70;;;;;;4915888;29;20354;-66
2024/02/21 08:27:47;;;;;;;0.30;0.30;;;14.20;96.60;;;;;;4916593;29;20178;-65
2024/02/21 08:30:13;;;;;;;0.30;0.30;;;14.40;95.60;;;;;;4916838;29;20196;-66
2024/02/21 08:32:39;;;;;;;0.30;0.30;;;14.50;95.10;;;;;;4916667;29;20230;-67
2024/02/21 08:35:05;;;;;;;0.30;0.20;;;14.60;94.80;;;;;;4916370;29;20853;-66
2024/02/21 08:37:30;;;;;;;0.30;0.30;;;14.60;94.70;;;;;;4916944;29;20189;-67
2024/02/21 08:39:56;;;;;;;0.30;0.20;;;14.60;94.50;;;;;;4907769;29;20405;-65
2024/02/21 08:42:22;;;;;;;0.30;0.30;;;14.60;94.80;;;;;;4897842;29;20536;-65
2024/02/21 08:44:47;;;;;;;0.30;0.20;;;14.50;94.70;;;;;;4897561;29;20186;-65
2024/02/21 08:47:13;;;;;;;0.30;0.23;;;14.60;94.70;;;;;;4898451;29;20696;-65
2024/02/21 08:49:39;;;;;;;0.30;0.20;;;14.60;94.50;;;;;;4916683;29;20182;-66
2024/02/21 08:52:05;;;;;;;0.43;0.43;;;14.50;94.50;;;;;;4916793;29;20385;-66
2024/02/21 08:54:32;;;;;;;6.50;0.80;;;14.30;94.70;;;;;;4908690;29;20179;-65
2024/02/21 08:56:58;;;;;;;0.30;0.30;;;14.20;94.60;;;;;;4904325;29;20902;-66
2024/02/21 08:59:26;;;;;;;0.30;0.30;;;14.20;94.80;;;;;;4916718;29;20418;-66
2024/02/21 09:01:55;;;;;;;0.30;0.30;;;14.10;95.10;;;;;;4916832;29;20653;-66
2024/02/21 09:04:20;;;;;;;0.30;0.20;;;14.10;95.40;;;;;;4916702;29;20463;-66
2024/02/21 09:06:46;;;;;;;0.30;0.30;;;14.10;95.10;;;;;;4916260;29;20544;-66
2024/02/21 09:09:12;;;;;;;0.30;0.20;;;13.90;94.50;;;;;;4916041;29;20278;-66
2024/02/21 09:11:38;;;;;;;1.27;0.80;;;13.70;94.40;;;;;;4916283;29;20240;-66
2024/02/21 09:14:03;;;;;;;0.40;0.40;;;13.60;94.50;;;;;;4913914;29;20429;-66
2024/02/21 09:16:31;;;;;;;0.80;0.47;;;13.50;94.60;;;;;;4897274;29;20285;-65
2024/02/21 09:18:57;;;;;;;0.30;0.20;;;13.30;94.90;;;;;;4897457;29;20189;-65
2024/02/21 09:21:23;;;;;;;0.30;0.20;;;13.20;95.30;;;;;;4897486;29;20401;-66
2024/02/21 09:23:48;;;;;;;0.30;0.30;;;13.10;95.20;;;;;;4897752;29;20632;-66
2024/02/21 09:26:16;;;;;;;0.30;0.30;;;13.10;95.50;;;;;;4897384;29;20214;-65
2024/02/21 09:28:42;;;;;;;0.30;0.30;;;13.10;95.70;;;;;;4897717;29;20581;-66
2024/02/21 09:31:07;;;;;;;0.30;0.30;;;13.00;95.80;;;;;;4897630;29;20418;-65
2024/02/21 09:33:33;;;;;;;0.30;0.30;;;13.00;96.00;;;;;;4897866;29;20400;-65
2024/02/21 09:35:58;;;;;;;0.30;0.30;;;13.00;96.00;;;;;;4897049;29;20196;-65
2024/02/21 09:38:24;;;;;;;0.83;0.83;;;13.10;96.10;;;;;;4897370;29;20252;-65
2024/02/21 09:41:19;;;;;;;0.40;0.40;;;13.20;96.10;;;;;;4897328;29;20700;-65
2024/02/21 09:43:45;;;;;;;0.30;0.30;;;13.40;96.00;;;;;;4903723;29;20214;-65
2024/02/21 09:46:21;;;;;;;0.30;0.20;;;13.50;95.50;;;;;;4919292;29;20948;-65
2024/02/21 09:49:21;;;;;;;0.30;0.30;;;13.40;95.40;;;;;;4919485;29;20412;-66
2024/02/21 09:51:51;;;;;;;0.83;0.50;;;13.40;96.00;;;;;;4919421;29;20780;-66
2024/02/21 09:54:20;;;;;;;0.30;0.20;;;13.40;95.90;;;;;;4919234;29;20413;-64
2024/02/21 09:56:47;;;;;;;0.30;0.30;;;13.60;96.00;;;;;;4919130;29;20412;-68
2024/02/21 09:59:15;;;;;;;0.30;0.30;;;13.70;95.90;;;;;;4919281;29;20426;-65
2024/02/21 10:01:42;;;;;;;0.30;0.30;;;13.80;95.20;;;;;;4919401;29;20902;-69
2024/02/21 10:04:08;;;;;;;0.30;0.30;;;13.90;94.90;;;;;;4919390;29;20778;-67
2024/02/21 10:06:34;;;;;;;0.30;0.30;;;14.10;95.00;;;;;;4918751;29;20469;-66
2024/02/21 10:09:00;;;;;;;0.30;0.20;;;14.20;95.20;;;;;;4918980;29;20163;-67
2024/02/21 10:11:26;;;;;;;0.30;0.30;;;14.30;94.30;;;;;;4919140;29;20469;-67
2024/02/21 10:14:02;;;;;;;0.30;0.20;;;14.30;94.20;;;;;;4909228;29;20315;-67
2024/02/21 10:16:28;;;;;;;0.30;0.20;;;14.40;94.40;;;;;;4899819;29;20545;-67
2024/02/21 10:18:54;;;;;;;0.30;0.30;;;14.60;94.30;;;;;;4904514;29;20505;-66
2024/02/21 10:21:20;;;;;;;0.30;0.20;;;14.90;93.80;;;;;;4918993;29;20329;-67
2024/02/21 10:23:47;;;;;;;0.40;0.40;;;15.10;93.60;;;;;;4919003;29;20505;-68
2024/02/21 10:26:17;;;;;;;0.30;0.20;;;15.20;93.20;;;;;;4918183;29;20210;-68
2024/02/21 10:28:44;;;;;;;0.30;0.20;;;15.40;93.20;;;;;;4918869;29;20561;-68
2024/02/21 10:31:11;;;;;;;0.30;0.30;;;15.50;92.70;;;;;;4919081;29;20736;-68
2024/02/21 10:33:38;;;;;;;0.30;0.30;;;15.60;92.30;;;;;;4918660;29;20389;-67
2024/02/21 10:36:10;;;;;;;0.30;0.30;;;15.60;92.60;;;;;;4918555;29;20405;-68
2024/02/21 10:38:41;;;;;;;0.30;0.30;;;15.80;92.10;;;;;;4918848;29;20442;-68
2024/02/21 10:41:08;;;;;;;0.30;0.20;;;15.90;92.00;;;;;;4919203;29;20418;-67
2024/02/21 10:43:42;;;;;;;0.30;0.20;;;15.90;91.80;;;;;;4918658;29;20418;-69
2024/02/21 10:46:08;;;;;;;0.30;0.30;;;16.10;91.70;;;;;;4918194;29;20553;-69
2024/02/21 10:48:43;;;;;;;0.30;0.30;;;16.30;91.00;;;;;;4918359;29;20400;-68
2024/02/21 10:51:23;;;;;;;0.30;0.30;;;16.50;91.20;;;;;;4918756;29;20390;-67
2024/02/21 10:54:05;;;;;;;0.30;0.20;;;16.70;90.60;;;;;;4918456;29;20407;-68
2024/02/21 10:56:36;;;;;;;0.30;0.30;;;16.80;90.00;;;;;;4917844;29;20456;-69
2024/02/21 10:59:04;;;;;;;0.50;0.50;;;16.80;89.20;;;;;;4918092;29;20503;-68
2024/02/21 11:01:31;;;;;;;0.30;0.30;;;16.90;89.20;;;;;;4917969;29;20520;-68
2024/02/21 11:04:00;;;;;;;0.30;0.30;;;16.90;87.90;;;;;;4917968;29;20785;-67
2024/02/21 11:06:27;;;;;;;0.30;0.30;;;16.90;87.90;;;;;;4917510;29;20617;-68
2024/02/21 11:09:07;;;;;;;0.50;0.40;;;16.90;88.00;;;;;;4917901;29;20501;-66
2024/02/21 11:11:38;;;;;;;0.30;0.30;;;16.70;86.40;;;;;;4918102;29;20381;-67
2024/02/21 11:14:20;;;;;;;0.30;0.20;;;16.60;88.60;;;;;;4912368;29;20816;-66
2024/02/21 11:16:46;;;;;;;0.30;0.20;;;16.30;87.00;;;;;;4898904;29;20434;-66
2024/02/21 11:19:28;;;;;;;0.30;0.30;;;16.20;88.90;;;;;;4898895;29;20392;-67
2024/02/21 11:21:55;;;;;;;0.30;0.27;;;16.10;87.80;;;;;;4899244;29;20411;-66
2024/02/21 11:24:32;;;;;;;0.50;0.50;;;15.90;88.10;;;;;;4898887;29;20421;-66
2024/02/21 11:27:13;;;;;;;0.30;0.30;;;15.60;89.30;;;;;;4898959;29;20433;-67
2024/02/21 11:29:46;;;;;;;0.30;0.30;;;15.50;89.10;;;;;;4899280;29;20442;-66
2024/02/21 11:32:14;;;;;;;0.30;0.30;;;15.40;88.80;;;;;;4921508;29;20534;-67
2024/02/21 11:34:41;;;;;;;0.37;0.37;;;15.40;89.90;;;;;;4925020;29;20482;-66
2024/02/21 11:37:16;;;;;;;0.30;0.30;;;15.10;89.80;;;;;;4917901;29;20432;-67
2024/02/21 11:39:42;;;;;;;0.30;0.30;;;15.00;90.10;;;;;;4918247;29;20429;-67
2024/02/21 11:42:08;;;;;;;0.30;0.20;;;15.10;90.50;;;;;;4911348;29;20733;-69
2024/02/21 11:44:42;;;;;;;0.30;0.30;;;15.00;90.00;;;;;;4899055;29;20906;-69
2024/02/21 11:47:08;;;;;;;0.30;0.30;;;15.00;90.20;;;;;;4899071;29;20437;-68
2024/02/21 11:49:46;;;;;;;0.40;0.40;;;15.10;89.60;;;;;;4899094;29;20737;-67
2024/02/21 11:52:14;;;;;;;0.50;0.50;;;15.20;89.80;;;;;;4898828;29;20477;-66
2024/02/21 11:54:39;;;;;;;0.30;0.30;;;15.30;88.90;;;;;;4898827;29;20420;-66
2024/02/21 11:57:05;;;;;;;0.30;0.30;;;15.30;88.60;;;;;;4907383;29;20495;-68
2024/02/21 11:59:32;;;;;;;0.40;0.40;;;15.30;87.90;;;;;;4917759;29;20614;-65
2024/02/21 12:01:58;;;;;;;0.30;0.30;;;15.30;88.20;;;;;;4917467;29;20553;-67
2024/02/21 12:04:24;;;;;;;0.30;0.20;;;15.20;87.70;;;;;;4916830;29;20805;-66
2024/02/21 12:06:52;;;;;;;0.40;0.40;;;15.10;87.50;;;;;;4917904;29;20452;-66
2024/02/21 12:09:18;;;;;;;0.30;0.20;;;15.20;88.40;;;;;;4917733;29;20410;-67
2024/02/21 12:11:44;;;;;;;0.30;0.30;;;15.20;87.00;;;;;;4909507;29;20419;-67
2024/02/21 12:14:10;;;;;;;0.30;0.30;;;15.20;86.80;;;;;;4898938;29;20811;-66
2024/02/21 12:16:37;;;;;;;0.30;0.20;;;15.20;87.20;;;;;;4898392;29;20410;-67
2024/02/21 12:19:03;;;;;;;0.30;0.30;;;15.20;86.80;;;;;;4898761;29;20447;-66
2024/02/21 12:21:36;;;;;;;0.50;0.40;;;15.20;86.70;;;;;;4898489;29;20386;-64
2024/02/21 12:24:31;;;;;;;0.30;0.30;;;15.00;84.90;;;;;;4898088;29;20763;-65
2024/02/21 12:27:18;;;;;;;0.40;0.40;;;14.80;86.10;;;;;;4869365;29;20438;-74
2024/02/21 12:29:43;;;;;;;0.30;0.30;;;14.80;86.50;;;;;;4897986;29;20438;-67
2024/02/21 12:32:09;;;;;;;0.40;0.40;;;14.90;85.30;;;;;;4898214;29;20386;-69
2024/02/21 12:34:36;;;;;;;0.30;0.30;;;14.90;84.20;;;;;;4897968;29;20260;-67
2024/02/21 12:37:03;;;;;;;0.30;0.20;;;14.90;84.50;;;;;;4897988;29;20468;-70
2024/02/21 12:39:28;;;;;;;0.30;0.30;;;15.00;82.70;;;;;;4898245;29;20410;-66
2024/02/21 12:41:55;;;;;;;0.30;0.30;;;15.10;82.60;;;;;;4897876;29;20405;-67
2024/02/21 12:44:21;;;;;;;0.30;0.30;;;15.20;80.20;;;;;;4897451;29;20242;-67
2024/02/21 12:46:51;;;;;;;0.30;0.30;;;15.20;80.40;;;;;;4897726;29;20505;-66
2024/02/21 12:49:17;;;;;;;0.30;0.30;;;15.30;81.60;;;;;;4897896;29;20258;-67
2024/02/21 12:51:43;;;;;;;0.30;0.30;;;15.30;80.80;;;;;;4897537;29;20874;-66
2024/02/21 12:54:11;;;;;;;0.30;0.30;;;15.30;79.80;;;;;;4897609;29;20448;-67
2024/02/21 12:56:36;;;;;;;0.30;0.30;;;15.30;78.70;;;;;;4910533;29;20238;-66
2024/02/21 12:59:02;;;;;;;0.30;0.30;;;15.20;78.30;;;;;;4916638;29;20395;-66
2024/02/21 13:01:28;;;;;;;0.30;0.30;;;15.10;78.50;;;;;;4916490;29;20423;-67
2024/02/21 13:03:54;;;;;;;0.30;0.20;;;15.00;78.90;;;;;;4917068;29;20181;-68
2024/02/21 13:06:19;;;;;;;0.30;0.30;;;15.00;78.00;;;;;;4915817;29;20205;-68
2024/02/21 13:08:46;;;;;;;0.30;0.30;;;15.00;79.60;;;;;;4916358;29;20276;-67
2024/02/21 13:11:12;;;;;;;0.30;0.20;;;15.00;80.60;;;;;;4916083;29;20193;-67
2024/02/21 13:13:38;;;;;;;0.30;0.30;;;15.10;80.20;;;;;;4916273;29;20409;-66
2024/02/21 13:16:04;;;;;;;0.30;0.30;;;15.20;79.20;;;;;;4917430;29;20913;-68
2024/02/21 13:18:30;;;;;;;0.30;0.30;;;15.20;79.40;;;;;;4920358;29;20203;-69
2024/02/21 13:20:56;;;;;;;0.30;0.20;;;15.30;79.60;;;;;;4919768;29;20934;-69
2024/02/21 13:23:21;;;;;;;0.30;0.30;;;15.20;78.00;;;;;;4919557;29;20429;-67
2024/02/21 13:25:47;;;;;;;0.30;0.30;;;15.20;78.10;;;;;;4902382;29;20266;-69
2024/02/21 13:28:15;;;;;;;0.30;0.27;;;15.10;78.10;;;;;;4920020;29;20215;-66
2024/02/21 13:30:40;;;;;;;0.30;0.30;;;15.10;78.50;;;;;;4919881;29;20180;-66
2024/02/21 13:33:07;;;;;;;0.30;0.30;;;15.00;78.90;;;;;;4919798;29;20409;-67
2024/02/21 13:35:32;;;;;;;0.30;0.30;;;15.10;78.50;;;;;;4918843;29;20214;-66
2024/02/21 13:37:58;;;;;;;0.30;0.30;;;15.10;77.80;;;;;;4919498;29;20756;-67
2024/02/21 13:40:25;;;;;;;0.30;0.23;;;15.00;79.10;;;;;;4919937;29;20177;-67
2024/02/21 13:42:51;;;;;;;0.30;0.30;;;15.10;79.20;;;;;;4919623;29;20176;-67
2024/02/21 13:45:16;;;;;;;0.50;0.40;;;15.10;78.70;;;;;;4919229;29;20413;-67
2024/02/21 13:47:42;;;;;;;0.30;0.30;;;15.20;78.90;;;;;;4916039;29;20393;-67
2024/02/21 13:50:10;;;;;;;0.30;0.20;;;15.20;78.50;;;;;;4902105;29;20241;-67
2024/02/21 13:52:36;;;;;;;0.30;0.30;;;15.20;76.60;;;;;;4900791;29;20581;-68
2024/02/21 13:55:02;;;;;;;0.30;0.20;;;15.20;76.50;;;;;;4900830;29;20394;-66
2024/02/21 13:57:28;;;;;;;0.30;0.20;;;15.10;77.30;;;;;;4900875;29;20851;-67
2024/02/21 13:59:54;;;;;;;0.30;0.30;;;15.10;76.40;;;;;;4900905;29;20414;-67
2024/02/21 14:02:21;;;;;;;0.30;0.20;;;15.00;75.40;;;;;;4901072;29;20186;-67
2024/02/21 14:04:47;;;;;;;0.30;0.30;;;15.00;75.20;;;;;;4900752;29;20693;-67
2024/02/21 14:07:12;;;;;;;0.40;0.40;;;14.90;74.80;;;;;;4900438;29;20543;-67
2024/02/21 14:09:38;;;;;;;0.30;0.30;;;14.80;75.20;;;;;;4900694;29;20963;-67
2024/02/21 14:12:07;;;;;;;0.30;0.20;;;14.70;75.90;;;;;;4900542;29;20725;-67
2024/02/21 14:14:34;;;;;;;0.30;0.30;;;14.80;76.30;;;;;;4900117;29;20184;-67
2024/02/21 14:17:00;;;;;;;0.30;0.30;;;14.80;76.00;;;;;;4902333;29;20515;-67
2024/02/21 14:19:25;;;;;;;0.30;0.20;;;14.80;76.50;;;;;;4901360;29;20507;-66
2024/02/21 14:21:51;;;;;;;0.30;0.30;;;14.80;76.00;;;;;;4919106;29;20642;-66
2024/02/21 14:24:17;;;;;;;0.30;0.30;;;14.80;75.60;;;;;;4918873;29;20189;-67
2024/02/21 14:26:42;;;;;;;0.30;0.20;;;14.80;75.50;;;;;;4918813;29;20209;-66
2024/02/21 14:29:08;;;;;;;0.30;0.20;;;14.80;76.90;;;;;;4919134;29;20212;-67
2024/02/21 14:31:33;;;;;;;0.30;0.20;;;14.70;76.60;;;;;;4919041;29;20624;-66
2024/02/21 14:33:59;;;;;;;0.30;0.30;;;14.70;77.40;;;;;;4919208;29;20183;-66
2024/02/21 14:36:26;;;;;;;0.30;0.20;;;14.70;76.50;;;;;;4918574;29;20560;-67
2024/02/21 14:38:52;;;;;;;0.30;0.30;;;14.70;76.20;;;;;;4918976;29;20386;-66
2024/02/21 14:41:18;;;;;;;0.30;0.30;;;14.70;76.00;;;;;;4918942;29;20495;-64
2024/02/21 14:43:44;;;;;;;0.30;0.27;;;14.60;77.60;;;;;;4918884;29;20259;-67
2024/02/21 14:46:12;;;;;;;0.30;0.30;;;14.50;75.00;;;;;;4918426;29;21041;-67
2024/02/21 14:48:37;;;;;;;0.30;0.30;;;14.50;75.70;;;;;;4918521;29;20195;-67
2024/02/21 14:51:03;;;;;;;0.30;0.30;;;14.60;75.60;;;;;;4918862;29;20415;-68
2024/02/21 14:53:30;;;;;;;0.30;0.30;;;14.60;75.80;;;;;;4918726;29;20180;-66
2024/02/21 14:55:57;;;;;;;0.30;0.20;;;14.70;76.60;;;;;;4918182;29;20198;-67
2024/02/21 14:58:23;;;;;;;0.30;0.20;;;14.70;75.90;;;;;;4918683;29;20900;-66
2024/02/21 15:00:49;;;;;;;0.30;0.20;;;14.60;75.40;;;;;;4918649;29;20392;-66
2024/02/21 15:03:19;;;;;;;0.40;0.40;;;14.60;75.40;;;;;;4900255;29;20428;-67
2024/02/21 15:05:45;;;;;;;0.33;0.33;;;14.50;75.50;;;;;;4898993;29;20211;-67
2024/02/21 15:08:11;;;;;;;0.30;0.30;;;14.50;76.50;;;;;;4899152;29;20512;-67
2024/02/21 15:10:37;;;;;;;0.30;0.30;;;14.40;77.40;;;;;;4899513;29;20567;-67
2024/02/21 15:13:03;;;;;;;0.30;0.30;;;14.40;77.70;;;;;;4899490;29;20511;-67
2024/02/21 15:15:29;;;;;;;0.30;0.20;;;14.40;78.80;;;;;;4898958;29;20515;-67
2024/02/21 15:17:54;;;;;;;0.30;0.20;;;14.40;78.30;;;;;;4916516;29;21028;-68
2024/02/21 15:20:20;;;;;;;0.30;0.20;;;14.30;77.30;;;;;;4913370;29;20282;-67
2024/02/21 15:22:46;;;;;;;0.30;0.20;;;14.40;78.30;;;;;;4918034;29;20322;-67
2024/02/21 15:25:14;;;;;;;0.30;0.30;;;14.30;78.40;;;;;;4917708;29;20657;-67
2024/02/21 15:27:44;;;;;;;0.30;0.30;;;14.30;79.00;;;;;;4918025;29;20684;-66
2024/02/21 15:30:11;;;;;;;0.30;0.30;;;14.20;78.80;;;;;;4918048;29;20454;-66
2024/02/21 15:32:38;;;;;;;0.30;0.20;;;14.20;77.70;;;;;;4917996;29;20542;-67
2024/02/21 15:35:06;;;;;;;0.30;0.30;;;14.10;78.10;;;;;;4917737;29;20444;-65
2024/02/21 15:37:32;;;;;;;0.30;0.30;;;14.00;78.60;;;;;;4916362;29;20751;-66
2024/02/21 15:39:58;;;;;;;0.30;0.30;;;14.00;80.20;;;;;;4917006;29;20417;-67
2024/02/21 15:42:23;;;;;;;0.30;0.20;;;14.00;81.00;;;;;;4918049;29;20411;-66
2024/02/21 15:44:49;;;;;;;0.30;0.30;;;14.00;80.40;;;;;;4917398;29;20178;-67
2024/02/21 15:47:17;;;;;;;0.30;0.20;;;13.90;80.20;;;;;;4917412;29;20286;-66
2024/02/21 15:49:43;;;;;;;0.40;0.40;;;13.90;80.70;;;;;;4917594;29;20254;-67
2024/02/21 15:52:08;;;;;;;0.90;0.77;;;13.90;80.90;;;;;;4917332;29;20476;-67
2024/02/21 15:54:36;;;;;;;0.30;0.30;;;13.90;81.50;;;;;;4917144;29;20178;-68
2024/02/21 15:57:05;;;;;;;0.30;0.30;;;13.90;82.30;;;;;;4917590;29;20194;-67
2024/02/21 15:59:34;;;;;;;0.30;0.30;;;13.90;82.80;;;;;;4917475;29;20494;-66
2024/02/21 16:02:00;;;;;;;0.30;0.30;;;13.80;83.70;;;;;;4917298;29;20442;-67
2024/02/21 16:04:28;;;;;;;0.60;0.60;;;13.80;84.00;;;;;;4917131;29;20440;-68
2024/02/21 16:06:54;;;;;;;0.40;0.40;;;13.80;84.90;;;;;;4912697;29;20466;-68
2024/02/21 16:09:20;;;;;;;0.30;0.20;;;13.70;85.60;;;;;;4898485;29;20478;-68
2024/02/21 16:11:46;;;;;;;0.30;0.30;;;13.70;86.70;;;;;;4898385;29;20407;-68
2024/02/21 16:14:11;;;;;;;0.30;0.30;;;13.60;87.50;;;;;;4897103;29;20577;-68
2024/02/21 16:16:40;;;;;;;0.30;0.30;;;13.50;87.50;;;;;;4880595;29;20435;-67
2024/02/21 16:19:06;;;;;;;0.30;0.30;;;13.50;88.30;;;;;;4898269;29;20202;-67
2024/02/21 16:21:31;;;;;;;0.30;0.20;;;13.50;89.00;;;;;;4901765;29;20505;-67
2024/02/21 16:23:57;;;;;;;0.30;0.30;;;13.40;89.80;;;;;;4917061;29;20550;-67
2024/02/21 16:26:22;;;;;;;0.30;0.30;;;13.40;90.10;;;;;;4916648;29;20213;-68
2024/02/21 16:28:48;;;;;;;0.30;0.30;;;13.30;90.40;;;;;;4916594;29;20174;-68
2024/02/21 16:31:14;;;;;;;0.30;0.30;;;13.20;90.60;;;;;;4898042;29;20181;-67
2024/02/21 16:33:40;;;;;;;0.30;0.30;;;13.20;90.80;;;;;;4898227;29;20637;-67
2024/02/21 16:36:07;;;;;;;0.40;0.40;;;13.10;91.10;;;;;;4897628;29;20208;-68
2024/02/21 16:38:33;;;;;;;0.30;0.30;;;13.00;91.30;;;;;;4898077;29;20494;-67
2024/02/21 16:40:59;;;;;;;0.30;0.30;;;13.00;91.30;;;;;;4898143;29;20482;-67
2024/02/21 16:43:25;;;;;;;0.30;0.30;;;12.90;91.50;;;;;;4898221;29;20816;-67
2024/02/21 16:45:51;;;;;;;0.30;0.30;;;12.90;91.80;;;;;;4904687;29;20461;-67
2024/02/21 16:48:17;;;;;;;0.30;0.30;;;12.80;92.00;;;;;;4916819;29;20410;-67
2024/02/21 16:50:42;;;;;;;0.30;0.20;;;12.80;92.30;;;;;;4919287;29;20170;-67
2024/02/21 16:53:08;;;;;;;0.30;0.30;;;12.70;92.50;;;;;;4923380;29;20197;-66
2024/02/21 16:55:34;;;;;;;2.70;0.87;;;12.70;92.60;;;;;;4922613;29;20268;-66
2024/02/21 16:58:00;;;;;;;0.30;0.30;;;12.60;92.80;;;;;;4923138;29;20978;-66
2024/02/21 17:00:26;;;;;;;0.30;0.30;;;12.60;93.10;;;;;;4922682;29;20220;-68
2024/02/21 17:02:52;;;;;;;0.30;0.30;;;12.50;93.20;;;;;;4905878;29;20421;-67
2024/02/21 17:05:24;;;;;;;0.60;0.60;;;12.50;93.50;;;;;;4922793;29;20413;-68
2024/02/21 17:07:50;;;;;;;0.40;0.40;;;12.40;93.50;;;;;;4923028;29;20277;-68
2024/02/21 17:10:16;;;;;;;0.30;0.30;;;12.40;93.70;;;;;;4922715;29;20396;-67
2024/02/21 17:12:42;;;;;;;0.30;0.30;;;12.40;94.00;;;;;;4922805;29;20415;-67
2024/02/21 17:15:08;;;;;;;0.37;0.37;;;12.30;94.10;;;;;;4905587;29;20241;-68
2024/02/21 17:17:37;;;;;;;0.30;0.20;;;12.30;94.20;;;;;;4904110;29;20193;-66
2024/02/21 17:20:03;;;;;;;0.33;0.33;;;12.30;94.30;;;;;;4905105;29;20871;-69
2024/02/21 17:22:29;;;;;;;0.30;0.30;;;12.20;94.50;;;;;;4903617;29;20466;-66
2024/02/21 17:24:54;;;;;;;0.30;0.30;;;12.20;94.90;;;;;;4903622;29;20521;-67
2024/02/21 17:27:20;;;;;;;0.30;0.30;;;12.20;95.40;;;;;;4903642;29;20214;-68
2024/02/21 17:29:45;;;;;;;0.30;0.30;;;12.10;95.70;;;;;;4904038;29;20189;-69
2024/02/21 17:32:11;;;;;;;0.40;0.40;;;12.00;95.90;;;;;;4903896;29;20209;-66
2024/02/21 17:34:37;;;;;;;0.63;0.63;;;12.00;96.50;;;;;;4903542;29;20645;-67
2024/02/21 17:37:03;;;;;;;0.30;0.30;;;11.90;96.60;;;;;;4903690;29;20478;-68
2024/02/21 17:39:28;;;;;;;0.37;0.37;;;11.90;96.80;;;;;;4903775;29;20685;-68
2024/02/21 17:41:56;;;;;;;0.30;0.27;;;11.90;97.10;;;;;;4904209;29;20509;-66
2024/02/21 17:44:22;;;;;;;0.40;0.40;;;11.80;97.30;;;;;;4903602;29;20182;-69
2024/02/21 17:46:47;;;;;;;0.37;0.37;;;11.80;97.50;;;;;;4903563;29;20873;-66
2024/02/21 17:49:15;;;;;;;0.30;0.30;;;11.80;97.90;;;;;;4911539;29;20547;-67
2024/02/21 17:51:41;;;;;;;0.30;0.30;;;11.70;98.00;;;;;;4922259;29;20195;-67
2024/02/21 17:54:07;;;;;;;0.30;0.30;;;11.70;98.30;;;;;;4922600;29;20771;-68